Time;durP1;ratioP1;P1;durP2;ratioP2;P2;SDS_P1;SDS_P2;PMS_P1;PMS_P2;Temp;Humidity;BMP_temperature;BMP_pressure;BME280_temperature;BME280_humidity;BME280_pressure;Samples;Min_cycle;Max_cycle;Signal;HPM_P1;HPM_P2
2022/01/05 00:00:35;;;;;;;0.47;0.32;;;1.70;99.90;;;;;;5135303;27;20064;-81
2022/01/05 00:03:01;;;;;;;1.85;0.75;;;1.70;99.90;;;;;;5116587;27;20051;-86
2022/01/05 00:05:26;;;;;;;1.98;1.88;;;1.60;99.90;;;;;;5115561;27;20051;-86
2022/01/05 00:07:52;;;;;;;5.63;3.88;;;1.60;99.90;;;;;;5116603;27;20051;-86
2022/01/05 00:10:18;;;;;;;2.38;1.15;;;1.60;99.90;;;;;;5135301;27;20046;-85
2022/01/05 00:12:43;;;;;;;2.00;1.08;;;1.50;99.90;;;;;;5117079;27;20104;-87
2022/01/05 00:15:10;;;;;;;0.40;0.40;;;1.50;99.90;;;;;;5134964;27;20039;-86
2022/01/05 00:17:35;;;;;;;1.55;1.45;;;1.50;99.90;;;;;;5116268;27;20047;-87
2022/01/05 00:20:02;;;;;;;3.28;2.38;;;1.40;99.90;;;;;;5116692;27;20093;-87
2022/01/05 00:22:28;;;;;;;0.43;0.43;;;1.40;99.90;;;;;;5098996;27;20043;-87
2022/01/05 00:24:54;;;;;;;0.38;0.38;;;1.50;99.90;;;;;;5116702;27;20415;-87
2022/01/05 00:27:19;;;;;;;0.45;0.45;;;1.40;99.90;;;;;;5099860;27;20403;-87
2022/01/05 00:29:45;;;;;;;0.60;0.60;;;1.40;99.90;;;;;;5116308;27;20049;-87
2022/01/05 00:32:11;;;;;;;0.73;0.73;;;1.40;99.90;;;;;;5099324;27;20062;-86
2022/01/05 00:34:36;;;;;;;0.28;0.28;;;1.40;99.90;;;;;;5116027;27;20047;-85
2022/01/05 00:37:03;;;;;;;0.35;0.35;;;1.40;99.90;;;;;;5135061;27;20064;-85
2022/01/05 00:39:28;;;;;;;2.72;0.55;;;1.50;99.90;;;;;;5134656;27;20547;-86
2022/01/05 00:41:54;;;;;;;0.52;0.40;;;1.60;99.90;;;;;;5116472;27;20180;-85
2022/01/05 00:44:20;;;;;;;0.10;0.10;;;1.70;99.90;;;;;;5135101;27;20039;-86
2022/01/05 00:46:46;;;;;;;0.95;0.93;;;1.80;99.90;;;;;;5112451;28;20130;-87
2022/01/05 00:49:13;;;;;;;0.20;0.20;;;1.90;99.90;;;;;;5117060;28;20053;-87
2022/01/05 00:51:38;;;;;;;0.60;0.60;;;2.00;99.90;;;;;;5098058;28;20046;-86
2022/01/05 00:54:05;;;;;;;0.20;0.20;;;2.10;99.90;;;;;;5114413;28;20043;-82
2022/01/05 00:56:31;;;;;;;0.52;0.30;;;2.10;99.90;;;;;;5113829;28;20492;-86
2022/01/05 00:58:57;;;;;;;2.08;1.10;;;2.20;99.90;;;;;;5113974;28;20048;-78
2022/01/05 01:01:23;;;;;;;1.35;0.93;;;2.20;99.90;;;;;;5095899;28;20058;-86
2022/01/05 01:03:48;;;;;;;6.50;0.63;;;2.20;99.90;;;;;;5095443;28;20063;-87
2022/01/05 01:06:15;;;;;;;0.50;0.50;;;2.30;99.90;;;;;;5114015;28;20084;-86
2022/01/05 01:08:40;;;;;;;2.25;0.43;;;2.30;99.90;;;;;;5095653;28;20082;-86
2022/01/05 01:11:06;;;;;;;0.20;0.20;;;2.30;99.90;;;;;;5096139;28;20075;-85
2022/01/05 01:13:32;;;;;;;0.20;0.20;;;2.30;99.90;;;;;;5095998;28;20081;-85
2022/01/05 01:15:58;;;;;;;0.20;0.20;;;2.20;99.90;;;;;;5087317;28;20092;-86
2022/01/05 01:18:24;;;;;;;0.80;0.80;;;2.20;99.90;;;;;;5115643;28;20487;-86
2022/01/05 01:20:49;;;;;;;0.75;0.30;;;2.30;99.90;;;;;;5134577;28;20391;-87
2022/01/05 01:23:22;;;;;;;0.20;0.20;;;2.20;99.90;;;;;;5099219;28;20050;-87
2022/01/05 01:25:51;;;;;;;0.82;0.82;;;2.20;99.90;;;;;;5115756;28;20410;-87
2022/01/05 01:28:17;;;;;;;0.43;0.43;;;2.20;99.90;;;;;;5116134;28;20065;-86
2022/01/05 01:30:43;;;;;;;0.30;0.30;;;2.10;99.90;;;;;;5134330;28;20035;-86
2022/01/05 01:33:09;;;;;;;2.05;1.10;;;2.10;99.90;;;;;;5134333;28;20050;-87
2022/01/05 01:35:34;;;;;;;1.58;0.70;;;2.00;99.90;;;;;;5134444;28;20122;-87
2022/01/05 01:38:00;;;;;;;4.78;0.65;;;2.10;99.90;;;;;;5099050;28;20062;-87
2022/01/05 01:40:27;;;;;;;0.30;0.30;;;2.10;99.90;;;;;;5115739;28;20092;-82
2022/01/05 01:42:53;;;;;;;0.13;0.13;;;2.00;99.90;;;;;;5149389;28;20035;-79
2022/01/05 01:45:18;;;;;;;0.17;0.17;;;2.00;99.90;;;;;;5126558;28;20072;-82
2022/01/05 01:47:45;;;;;;;0.10;0.10;;;1.90;99.90;;;;;;5160709;27;20085;-87
2022/01/05 01:50:12;;;;;;;0.30;0.30;;;1.90;99.90;;;;;;5138158;27;20113;-85
2022/01/05 01:52:37;;;;;;;0.30;0.30;;;1.80;99.90;;;;;;5135594;27;20046;-84
2022/01/05 01:55:04;;;;;;;0.20;0.20;;;1.80;99.90;;;;;;5113848;28;20391;-83
2022/01/05 01:57:34;;;;;;;0.20;0.20;;;1.80;99.90;;;;;;5112889;28;20128;-85
2022/01/05 02:00:00;;;;;;;9.90;1.00;;;1.80;99.90;;;;;;5113018;28;20032;-86
2022/01/05 02:02:26;;;;;;;0.20;0.20;;;1.80;99.90;;;;;;5113062;28;20055;-83
2022/01/05 02:04:52;;;;;;;0.32;0.32;;;1.80;99.90;;;;;;5112621;28;20047;-85
2022/01/05 02:07:18;;;;;;;0.45;0.28;;;1.80;99.90;;;;;;5112913;28;20051;-84
2022/01/05 02:09:43;;;;;;;0.10;0.10;;;1.70;99.90;;;;;;5112579;28;20042;-85
2022/01/05 02:12:10;;;;;;;0.30;0.30;;;1.70;99.90;;;;;;5112639;28;20075;-84
2022/01/05 02:14:36;;;;;;;0.30;0.30;;;1.70;99.90;;;;;;5112852;28;20035;-86
2022/01/05 02:17:10;;;;;;;0.20;0.20;;;1.70;99.90;;;;;;5130007;28;20092;-84
2022/01/05 02:19:36;;;;;;;0.20;0.20;;;1.70;99.90;;;;;;5133356;28;20047;-85
2022/01/05 02:22:03;;;;;;;0.47;0.47;;;1.70;99.90;;;;;;5133170;28;20486;-84
2022/01/05 02:24:28;;;;;;;1.13;1.08;;;1.70;99.90;;;;;;5133523;28;20050;-84
2022/01/05 02:26:55;;;;;;;0.20;0.20;;;1.60;99.90;;;;;;5114701;27;20035;-84
2022/01/05 02:29:21;;;;;;;1.67;1.52;;;1.60;99.90;;;;;;5117600;27;20494;-84
2022/01/05 02:31:48;;;;;;;0.20;0.20;;;1.60;99.90;;;;;;5118467;27;20047;-85
2022/01/05 02:34:17;;;;;;;0.20;0.20;;;1.50;99.90;;;;;;5136537;27;20483;-85
2022/01/05 02:36:42;;;;;;;0.98;0.47;;;1.50;99.90;;;;;;5136798;27;20433;-85
2022/01/05 02:39:08;;;;;;;0.20;0.20;;;1.50;99.90;;;;;;5136722;27;20104;-84
2022/01/05 02:41:34;;;;;;;0.55;0.55;;;1.60;99.90;;;;;;5136407;27;20039;-86
2022/01/05 02:43:59;;;;;;;0.57;0.57;;;1.60;99.90;;;;;;5118154;27;20039;-84
2022/01/05 02:46:25;;;;;;;0.20;0.20;;;1.60;99.90;;;;;;5117689;27;20043;-85
2022/01/05 02:48:53;;;;;;;0.20;0.20;;;1.70;99.90;;;;;;5101164;27;20047;-83
2022/01/05 02:51:19;;;;;;;0.20;0.20;;;1.70;99.90;;;;;;5117791;27;20054;-81
2022/01/05 02:53:46;;;;;;;0.10;0.10;;;1.90;99.90;;;;;;5136636;27;20047;-83
2022/01/05 02:56:12;;;;;;;1.85;1.00;;;1.90;99.90;;;;;;5118176;27;20039;-83
2022/01/05 02:58:38;;;;;;;0.30;0.30;;;2.00;99.90;;;;;;5136289;27;20049;-83
2022/01/05 03:01:05;;;;;;;0.13;0.13;;;2.10;99.90;;;;;;5135923;27;20082;-84
2022/01/05 03:03:31;;;;;;;0.20;0.20;;;2.10;99.90;;;;;;5114966;27;20035;-84
2022/01/05 03:05:56;;;;;;;0.20;0.20;;;2.10;99.90;;;;;;5117523;27;20104;-84
2022/01/05 03:08:22;;;;;;;2.03;1.35;;;2.10;99.90;;;;;;5117637;27;20043;-83
2022/01/05 03:10:48;;;;;;;0.20;0.20;;;2.10;99.90;;;;;;5113678;28;20122;-84
2022/01/05 03:13:14;;;;;;;0.10;0.10;;;2.10;99.90;;;;;;5080112;28;20453;-83
2022/01/05 03:15:40;;;;;;;0.30;0.30;;;2.10;99.90;;;;;;5097218;28;20050;-84
2022/01/05 03:18:06;;;;;;;0.20;0.20;;;2.10;99.90;;;;;;5113968;28;20514;-83
2022/01/05 03:20:34;;;;;;;0.17;0.17;;;2.10;99.90;;;;;;5115341;28;20164;-83
2022/01/05 03:23:00;;;;;;;0.30;0.30;;;2.10;99.90;;;;;;5096663;28;20492;-83
2022/01/05 03:25:26;;;;;;;0.68;0.68;;;2.20;99.90;;;;;;5115528;28;20122;-83
2022/01/05 03:27:53;;;;;;;0.28;0.28;;;2.20;99.90;;;;;;5114300;28;20115;-84
2022/01/05 03:30:22;;;;;;;3.63;0.93;;;2.20;99.90;;;;;;5115366;28;20035;-84
2022/01/05 03:35:45;;;;;;;1.15;1.15;;;2.20;99.90;;;;;;5053264;28;20049;-83
2022/01/05 03:38:13;;;;;;;0.25;0.25;;;2.10;99.90;;;;;;5055491;28;20063;-83
2022/01/05 03:40:39;;;;;;;8.20;0.70;;;2.20;99.90;;;;;;5036029;28;20060;-83
2022/01/05 03:43:07;;;;;;;0.25;0.25;;;2.20;99.90;;;;;;5052102;28;20048;-83
2022/01/05 03:45:35;;;;;;;0.20;0.20;;;2.20;99.90;;;;;;5052181;28;20052;-83
2022/01/05 03:48:02;;;;;;;0.52;0.47;;;2.30;99.90;;;;;;5051925;28;20059;-83
2022/01/05 03:50:28;;;;;;;0.20;0.20;;;2.30;99.90;;;;;;5035633;28;20084;-75
2022/01/05 03:52:53;;;;;;;0.30;0.30;;;2.30;99.90;;;;;;5052023;28;20537;-83
2022/01/05 03:55:19;;;;;;;0.80;0.80;;;2.30;99.90;;;;;;5035188;28;20080;-81
2022/01/05 03:57:45;;;;;;;0.20;0.20;;;2.40;99.90;;;;;;5035010;28;20502;-80
2022/01/05 04:00:11;;;;;;;0.20;0.20;;;2.40;99.90;;;;;;5035482;28;20091;-83
2022/01/05 04:02:37;;;;;;;0.35;0.35;;;2.40;99.90;;;;;;5064823;28;20098;-85
2022/01/05 04:05:03;;;;;;;0.60;0.60;;;2.50;99.90;;;;;;5071556;28;20048;-84
2022/01/05 04:07:29;;;;;;;0.20;0.20;;;2.50;99.90;;;;;;5071767;28;20060;-83
2022/01/05 04:09:54;;;;;;;0.20;0.20;;;2.60;99.90;;;;;;5055428;28;20517;-84
2022/01/05 04:12:20;;;;;;;14.43;1.25;;;2.60;99.90;;;;;;5097597;28;20491;-83
2022/01/05 04:14:46;;;;;;;0.30;0.30;;;2.60;99.90;;;;;;5114476;28;20055;-84
2022/01/05 04:17:11;;;;;;;0.47;0.47;;;2.70;99.90;;;;;;5096146;28;20081;-84
2022/01/05 04:19:37;;;;;;;0.30;0.30;;;2.60;99.90;;;;;;5095566;28;20043;-85
2022/01/05 04:22:03;;;;;;;0.20;0.20;;;2.60;99.90;;;;;;5096109;28;20119;-84
2022/01/05 04:24:28;;;;;;;0.20;0.20;;;2.60;99.90;;;;;;5096041;28;20106;-81
2022/01/05 04:26:54;;;;;;;15.82;1.13;;;2.60;99.90;;;;;;5114472;28;20080;-84
2022/01/05 04:29:20;;;;;;;0.20;0.20;;;2.70;99.90;;;;;;5096308;28;20047;-84
2022/01/05 04:31:45;;;;;;;2.35;1.05;;;2.80;99.90;;;;;;5079550;28;20042;-85
2022/01/05 04:34:11;;;;;;;0.20;0.20;;;2.80;99.90;;;;;;5100122;28;20047;-85
2022/01/05 04:36:37;;;;;;;0.20;0.20;;;2.80;99.90;;;;;;5097889;28;20058;-83
2022/01/05 04:39:03;;;;;;;0.20;0.20;;;2.80;99.90;;;;;;5095928;28;20054;-84
2022/01/05 04:41:29;;;;;;;0.30;0.30;;;2.90;99.90;;;;;;5095709;28;20036;-84
2022/01/05 04:43:55;;;;;;;0.15;0.15;;;3.00;99.90;;;;;;5095604;28;20047;-85
2022/01/05 04:46:21;;;;;;;10.98;4.63;;;3.00;99.90;;;;;;5095317;28;20113;-84
2022/01/05 04:48:46;;;;;;;0.30;0.30;;;3.10;99.90;;;;;;5095641;28;20039;-82
2022/01/05 04:51:12;;;;;;;0.10;0.10;;;3.10;99.90;;;;;;5095105;28;20422;-86
2022/01/05 04:53:38;;;;;;;1.13;1.13;;;3.10;99.90;;;;;;5095701;28;20065;-85
2022/01/05 04:56:03;;;;;;;0.20;0.20;;;3.10;99.90;;;;;;5113929;28;20035;-83
2022/01/05 04:58:31;;;;;;;1.45;1.38;;;3.20;99.90;;;;;;5095864;28;20047;-84
2022/01/05 05:00:57;;;;;;;0.80;0.60;;;3.30;99.90;;;;;;5078899;28;20381;-85
2022/01/05 05:03:22;;;;;;;0.20;0.20;;;3.20;99.90;;;;;;5095065;28;20055;-85
2022/01/05 05:05:48;;;;;;;0.20;0.20;;;3.30;99.90;;;;;;5115106;27;20126;-85
2022/01/05 05:08:14;;;;;;;0.20;0.20;;;3.20;99.90;;;;;;5116022;28;20126;-85
2022/01/05 05:10:39;;;;;;;0.57;0.57;;;3.20;99.90;;;;;;5134242;27;20049;-83
2022/01/05 05:13:14;;;;;;;0.20;0.20;;;3.20;99.90;;;;;;5115552;28;20050;-85
2022/01/05 05:15:41;;;;;;;0.20;0.20;;;3.20;99.90;;;;;;5134237;28;20035;-85
2022/01/05 05:18:07;;;;;;;0.40;0.40;;;3.20;99.90;;;;;;5133950;28;20087;-84
2022/01/05 05:20:33;;;;;;;0.30;0.30;;;3.30;99.90;;;;;;5115511;28;20046;-83
2022/01/05 05:23:00;;;;;;;1.75;0.60;;;3.20;99.90;;;;;;5115323;28;20457;-83
2022/01/05 05:25:26;;;;;;;0.20;0.20;;;3.20;99.90;;;;;;5116442;28;20046;-82
2022/01/05 05:27:51;;;;;;;0.17;0.17;;;3.20;99.90;;;;;;5117223;28;20554;-83
2022/01/05 05:30:17;;;;;;;3.20;0.77;;;3.20;99.90;;;;;;5116791;28;20086;-82
2022/01/05 05:32:43;;;;;;;24.55;0.73;;;3.20;99.90;;;;;;5116175;28;20051;-83
2022/01/05 05:35:09;;;;;;;0.20;0.20;;;3.20;99.90;;;;;;5115393;28;20039;-84
2022/01/05 05:37:35;;;;;;;0.20;0.20;;;3.20;99.90;;;;;;5115427;28;20483;-80
2022/01/05 05:40:01;;;;;;;0.20;0.20;;;3.20;99.90;;;;;;5133597;28;20130;-83
2022/01/05 05:42:26;;;;;;;0.38;0.38;;;3.20;99.90;;;;;;5133971;28;20047;-82
2022/01/05 05:44:53;;;;;;;0.20;0.20;;;3.10;99.90;;;;;;5115564;28;20392;-83
2022/01/05 05:47:18;;;;;;;0.20;0.20;;;3.10;99.90;;;;;;5133373;28;20050;-83
2022/01/05 05:49:45;;;;;;;0.20;0.20;;;3.10;99.90;;;;;;5115528;28;20039;-82
2022/01/05 05:52:12;;;;;;;0.20;0.20;;;3.10;99.90;;;;;;5097955;28;20046;-84
2022/01/05 05:54:38;;;;;;;0.20;0.20;;;3.10;99.90;;;;;;5115121;28;20043;-83
2022/01/05 05:57:04;;;;;;;0.30;0.30;;;3.20;99.90;;;;;;5115184;28;20046;-85
2022/01/05 05:59:30;;;;;;;0.30;0.30;;;3.30;99.90;;;;;;5115039;28;20035;-83
2022/01/05 06:01:55;;;;;;;0.20;0.20;;;3.30;99.90;;;;;;5116025;27;20038;-82
2022/01/05 06:04:21;;;;;;;0.30;0.30;;;3.30;99.90;;;;;;5119186;27;20051;-81
2022/01/05 06:06:46;;;;;;;2.53;0.60;;;3.40;99.90;;;;;;5119149;27;20043;-83
2022/01/05 06:09:12;;;;;;;0.30;0.30;;;3.40;99.90;;;;;;5119294;27;20047;-84
2022/01/05 06:11:38;;;;;;;0.80;0.80;;;3.40;99.90;;;;;;5118844;27;20035;-83
2022/01/05 06:14:03;;;;;;;0.20;0.20;;;3.40;99.90;;;;;;5118875;27;20043;-83
2022/01/05 06:16:29;;;;;;;0.20;0.20;;;3.40;99.90;;;;;;5118560;27;20064;-84
2022/01/05 06:18:55;;;;;;;0.20;0.20;;;3.50;99.90;;;;;;5118818;27;20039;-83
2022/01/05 06:21:20;;;;;;;0.20;0.20;;;3.60;99.90;;;;;;5118607;27;20047;-84
2022/01/05 06:23:46;;;;;;;4.28;0.63;;;3.50;99.90;;;;;;5137063;27;20089;-83
2022/01/05 06:26:11;;;;;;;0.30;0.30;;;3.50;99.90;;;;;;5118667;27;20035;-84
2022/01/05 06:28:37;;;;;;;0.30;0.30;;;3.50;99.90;;;;;;5118824;27;20138;-85
2022/01/05 06:31:03;;;;;;;1.17;0.65;;;3.50;99.90;;;;;;5137536;27;20043;-86
2022/01/05 06:33:29;;;;;;;4.30;0.40;;;3.50;99.90;;;;;;5137576;27;20089;-88
2022/01/05 06:35:54;;;;;;;0.45;0.30;;;3.50;99.90;;;;;;5119697;27;20051;-91
2022/01/05 06:38:20;;;;;;;0.20;0.20;;;3.40;99.90;;;;;;5138147;27;20039;-91
2022/01/05 06:40:46;;;;;;;2.85;1.85;;;3.40;99.90;;;;;;5137909;27;20511;-90
2022/01/05 06:43:12;;;;;;;0.20;0.20;;;3.30;99.90;;;;;;5137956;27;20472;-89
2022/01/05 06:45:37;;;;;;;0.30;0.30;;;3.30;99.90;;;;;;5137489;27;20051;-90
2022/01/05 06:48:03;;;;;;;0.82;0.82;;;3.30;99.90;;;;;;5137507;27;20042;-89
2022/01/05 06:50:29;;;;;;;0.20;0.20;;;3.20;99.90;;;;;;5101859;27;20127;-88
2022/01/05 06:52:55;;;;;;;0.30;0.30;;;3.20;99.90;;;;;;5119207;27;20054;-88
2022/01/05 06:55:22;;;;;;;0.20;0.20;;;3.10;99.90;;;;;;5118801;27;20501;-87
2022/01/05 06:57:48;;;;;;;0.28;0.28;;;3.10;99.90;;;;;;5118910;27;20095;-88
2022/01/05 07:00:14;;;;;;;0.63;0.63;;;3.20;99.90;;;;;;5137127;27;20042;-91
2022/01/05 07:02:40;;;;;;;1.00;0.57;;;3.20;99.90;;;;;;5119273;27;20046;-90
2022/01/05 07:05:07;;;;;;;9.20;1.20;;;3.20;99.90;;;;;;5118705;27;20047;-91
2022/01/05 07:07:33;;;;;;;3.08;2.15;;;3.20;99.90;;;;;;5119087;27;20051;-89
2022/01/05 07:09:58;;;;;;;0.73;0.73;;;3.30;99.90;;;;;;5137150;27;20047;-88
2022/01/05 07:12:24;;;;;;;1.48;1.48;;;3.30;99.90;;;;;;5118686;27;20047;-89
2022/01/05 07:14:50;;;;;;;0.40;0.40;;;3.30;99.90;;;;;;5136302;27;20062;-85
2022/01/05 07:17:15;;;;;;;0.30;0.30;;;3.30;99.90;;;;;;5101940;27;20047;-90
2022/01/05 07:19:41;;;;;;;1.65;0.90;;;3.30;99.90;;;;;;5103310;27;20035;-89
2022/01/05 07:22:07;;;;;;;0.20;0.20;;;3.30;99.90;;;;;;5122690;27;20035;-88
2022/01/05 07:24:32;;;;;;;0.40;0.40;;;3.30;99.90;;;;;;5104467;27;20050;-90
2022/01/05 07:26:58;;;;;;;0.63;0.50;;;3.30;99.90;;;;;;5101577;27;20046;-80
2022/01/05 07:29:24;;;;;;;0.20;0.20;;;3.40;99.90;;;;;;5118934;27;20050;-84
2022/01/05 07:31:49;;;;;;;0.20;0.20;;;3.40;99.90;;;;;;5118598;27;20035;-90
2022/01/05 07:34:16;;;;;;;0.10;0.10;;;3.40;99.90;;;;;;5118450;27;20046;-91
2022/01/05 07:36:41;;;;;;;0.28;0.28;;;3.40;99.90;;;;;;5101293;27;20039;-89
2022/01/05 07:39:08;;;;;;;2.15;0.82;;;3.50;99.90;;;;;;5136518;27;20039;-87
2022/01/05 07:41:35;;;;;;;0.30;0.30;;;3.40;99.90;;;;;;5118661;27;20051;-88
2022/01/05 07:44:01;;;;;;;0.22;0.22;;;3.50;99.90;;;;;;5118836;27;20100;-89
2022/01/05 07:46:27;;;;;;;1.50;1.50;;;3.40;99.90;;;;;;5118546;27;20039;-86
2022/01/05 07:48:52;;;;;;;0.35;0.35;;;3.40;99.90;;;;;;5101490;27;20094;-87
2022/01/05 07:51:18;;;;;;;0.20;0.20;;;3.50;99.90;;;;;;5136807;27;20046;-88
2022/01/05 07:53:44;;;;;;;0.30;0.30;;;3.40;99.90;;;;;;5118388;27;20050;-91
2022/01/05 07:56:09;;;;;;;0.25;0.25;;;3.40;99.90;;;;;;5101247;27;20058;-89
2022/01/05 07:58:36;;;;;;;10.15;1.27;;;3.40;99.90;;;;;;5100925;27;20035;-89
2022/01/05 08:01:03;;;;;;;0.43;0.43;;;3.40;99.90;;;;;;5118358;27;20046;-90
2022/01/05 08:03:32;;;;;;;0.17;0.17;;;3.40;99.90;;;;;;5117776;27;20505;-90
2022/01/05 08:06:05;;;;;;;0.40;0.40;;;3.30;99.90;;;;;;5100651;27;20047;-83
2022/01/05 08:08:31;;;;;;;0.20;0.20;;;3.30;99.90;;;;;;5100874;27;20039;-89
2022/01/05 08:10:57;;;;;;;0.20;0.20;;;3.30;99.90;;;;;;5118117;27;20035;-89
2022/01/05 08:13:26;;;;;;;0.20;0.20;;;3.20;99.90;;;;;;5117672;27;20122;-89
2022/01/05 08:15:53;;;;;;;1.90;0.80;;;3.30;99.90;;;;;;5118331;27;20043;-89
2022/01/05 08:18:19;;;;;;;0.25;0.25;;;3.20;99.90;;;;;;5138040;27;20054;-90
2022/01/05 08:20:46;;;;;;;0.30;0.30;;;3.20;99.90;;;;;;5137301;27;20031;-89
2022/01/05 08:23:16;;;;;;;0.32;0.32;;;3.20;99.90;;;;;;5135828;27;20112;-89
2022/01/05 08:25:42;;;;;;;0.35;0.35;;;3.30;99.90;;;;;;5134632;27;20035;-89
2022/01/05 08:28:08;;;;;;;0.20;0.20;;;3.40;99.90;;;;;;5135663;27;20077;-88
2022/01/05 08:30:35;;;;;;;0.57;0.57;;;3.40;99.90;;;;;;5117500;27;20043;-88
2022/01/05 08:33:03;;;;;;;0.20;0.20;;;3.40;99.90;;;;;;5136446;27;20043;-89
2022/01/05 08:35:29;;;;;;;1.20;1.20;;;3.50;99.90;;;;;;5117519;27;20035;-88
2022/01/05 08:41:36;;;;;;;0.20;0.20;;;3.70;99.90;;;;;;5135751;27;20084;-89
2022/01/05 08:44:02;;;;;;;0.28;0.28;;;3.80;99.90;;;;;;5135473;27;20540;-88
2022/01/05 08:46:27;;;;;;;0.20;0.20;;;3.80;99.90;;;;;;5135447;27;20039;-91
2022/01/05 08:48:53;;;;;;;0.20;0.20;;;3.90;99.90;;;;;;5135500;27;20075;-86
2022/01/05 08:51:19;;;;;;;0.25;0.25;;;3.90;99.90;;;;;;5135232;27;20088;-88
2022/01/05 08:53:45;;;;;;;0.20;0.20;;;3.90;99.90;;;;;;5116937;27;20039;-89
2022/01/05 08:56:11;;;;;;;0.20;0.20;;;3.90;99.90;;;;;;5117013;27;20047;-86
2022/01/05 08:58:36;;;;;;;0.20;0.20;;;4.00;99.90;;;;;;5116175;27;20047;-85
2022/01/05 09:01:03;;;;;;;0.20;0.20;;;4.00;99.90;;;;;;5134430;27;20050;-87
2022/01/05 09:03:28;;;;;;;1.85;1.65;;;4.10;99.90;;;;;;5116266;27;20415;-83
2022/01/05 09:05:54;;;;;;;0.20;0.20;;;4.20;99.90;;;;;;5135197;27;20039;-88
2022/01/05 09:08:20;;;;;;;0.50;0.50;;;4.20;99.90;;;;;;5134963;27;20043;-87
2022/01/05 09:10:45;;;;;;;2.28;2.05;;;4.20;99.90;;;;;;5125580;28;20043;-85
2022/01/05 09:13:12;;;;;;;0.20;0.20;;;4.30;99.90;;;;;;5147921;27;20039;-86
2022/01/05 09:15:40;;;;;;;3.70;2.05;;;4.30;99.90;;;;;;5140703;27;20073;-89
2022/01/05 09:18:06;;;;;;;0.20;0.20;;;4.30;99.90;;;;;;5117427;28;20043;-88
2022/01/05 09:20:32;;;;;;;0.20;0.20;;;4.40;99.90;;;;;;5134784;28;20035;-85
2022/01/05 09:22:58;;;;;;;0.20;0.20;;;4.40;99.90;;;;;;5116817;28;20050;-90
2022/01/05 09:25:24;;;;;;;0.20;0.20;;;4.50;99.90;;;;;;5117470;28;20047;-89
2022/01/05 09:27:51;;;;;;;1.08;0.63;;;4.60;99.90;;;;;;5135828;28;20081;-85
2022/01/05 09:30:18;;;;;;;0.85;0.85;;;4.70;99.90;;;;;;5117592;28;20043;-90
2022/01/05 09:32:44;;;;;;;0.10;0.10;;;4.70;99.90;;;;;;5136752;28;20075;-91
2022/01/05 09:35:14;;;;;;;0.15;0.15;;;4.70;99.90;;;;;;5117146;28;20051;-90
2022/01/05 09:37:51;;;;;;;0.20;0.20;;;4.70;99.90;;;;;;5137236;27;20046;-91
2022/01/05 09:43:04;;;;;;;0.93;0.93;;;4.80;99.90;;;;;;5138943;27;20138;-91
2022/01/05 09:45:33;;;;;;;0.30;0.30;;;4.80;99.90;;;;;;5120801;27;20043;-91
2022/01/05 09:48:38;;;;;;;0.95;0.95;;;4.70;99.90;;;;;;5120973;27;20137;-93
2022/01/05 09:51:12;;;;;;;0.95;0.73;;;4.70;99.90;;;;;;5138909;27;20058;-88
2022/01/05 09:53:38;;;;;;;1.73;1.67;;;4.80;99.90;;;;;;5138927;27;20043;-91
2022/01/05 09:56:06;;;;;;;0.20;0.20;;;4.80;99.90;;;;;;5139090;27;20043;-88
2022/01/05 09:58:32;;;;;;;0.20;0.20;;;4.90;99.90;;;;;;5120828;27;20044;-86
2022/01/05 10:00:59;;;;;;;0.85;0.85;;;4.80;99.90;;;;;;5139085;27;20043;-90
2022/01/05 10:03:26;;;;;;;0.20;0.20;;;4.90;99.90;;;;;;5139360;27;20051;-90
2022/01/05 10:05:52;;;;;;;0.55;0.40;;;5.00;99.90;;;;;;5120723;27;20073;-85
2022/01/05 10:08:18;;;;;;;0.10;0.10;;;5.00;99.90;;;;;;5138778;27;20442;-87
2022/01/05 10:10:44;;;;;;;0.17;0.17;;;5.10;99.90;;;;;;5139398;27;20536;-92
2022/01/05 10:13:10;;;;;;;0.10;0.10;;;5.10;99.90;;;;;;5121071;27;20055;-89
2022/01/05 10:15:36;;;;;;;0.17;0.17;;;5.10;99.90;;;;;;5140093;27;20037;-91
2022/01/05 10:18:13;;;;;;;0.47;0.47;;;5.10;99.90;;;;;;5138810;27;20043;-89
2022/01/05 10:21:03;;;;;;;1.75;1.17;;;5.10;99.90;;;;;;5120947;27;20035;-88
2022/01/05 10:23:33;;;;;;;0.68;0.68;;;5.20;99.90;;;;;;5138019;27;20544;-91
2022/01/05 10:26:27;;;;;;;0.10;0.10;;;5.20;99.90;;;;;;5137967;27;20100;-88
2022/01/05 10:28:57;;;;;;;0.20;0.20;;;5.20;99.90;;;;;;5138666;27;20049;-91
2022/01/05 10:31:26;;;;;;;2.35;2.25;;;5.30;99.90;;;;;;5138511;27;20074;-86
2022/01/05 10:33:53;;;;;;;0.20;0.20;;;5.40;99.90;;;;;;5103262;27;20421;-90
2022/01/05 10:36:19;;;;;;;0.80;0.80;;;5.40;99.90;;;;;;5137552;27;20556;-91
2022/01/05 10:38:57;;;;;;;0.30;0.30;;;5.40;99.90;;;;;;5137820;27;20118;-88
2022/01/05 10:41:26;;;;;;;1.95;0.77;;;5.40;99.90;;;;;;5119554;27;20443;-90
2022/01/05 10:44:11;;;;;;;1.33;1.27;;;5.40;99.90;;;;;;5137525;27;20554;-90
2022/01/05 10:46:47;;;;;;;0.10;0.10;;;5.50;99.90;;;;;;5137608;27;20068;-81
2022/01/05 10:49:35;;;;;;;0.17;0.17;;;5.50;99.90;;;;;;5136327;27;20075;-90
2022/01/05 10:52:19;;;;;;;3.85;3.60;;;5.60;99.90;;;;;;5137326;27;20043;-90
2022/01/05 10:54:45;;;;;;;1.05;1.05;;;5.70;99.90;;;;;;5119306;27;20047;-85
2022/01/05 10:57:12;;;;;;;0.10;0.10;;;5.80;99.90;;;;;;5119614;27;20062;-88
2022/01/05 10:59:45;;;;;;;0.22;0.22;;;5.90;99.90;;;;;;5121513;27;20035;-90
2022/01/05 11:02:27;;;;;;;0.20;0.20;;;5.80;99.90;;;;;;5121925;27;20046;-91
2022/01/05 11:04:55;;;;;;;0.20;0.20;;;5.90;99.90;;;;;;5119924;27;20067;-85
2022/01/05 11:07:23;;;;;;;0.45;0.45;;;5.90;99.90;;;;;;5137287;27;20050;-88
2022/01/05 11:10:13;;;;;;;4.47;0.40;;;6.00;99.90;;;;;;5119039;27;20080;-87
2022/01/05 11:12:51;;;;;;;0.43;0.43;;;6.00;99.90;;;;;;5118797;27;20078;-86
2022/01/05 11:15:18;;;;;;;0.20;0.20;;;6.10;99.90;;;;;;5118764;27;20112;-83
2022/01/05 11:18:19;;;;;;;0.40;0.40;;;6.20;99.90;;;;;;5119315;27;20051;-88
2022/01/05 11:20:55;;;;;;;0.22;0.22;;;6.30;99.90;;;;;;5137147;27;20076;-90
2022/01/05 11:23:22;;;;;;;0.57;0.57;;;6.30;99.90;;;;;;5118604;27;20051;-92
2022/01/05 11:25:50;;;;;;;0.10;0.10;;;6.40;99.90;;;;;;5137115;27;20081;-85
2022/01/05 11:28:18;;;;;;;0.10;0.10;;;6.40;99.90;;;;;;5119322;27;20046;-90
2022/01/05 11:30:45;;;;;;;0.20;0.20;;;6.40;99.90;;;;;;5136915;27;20043;-89
2022/01/05 11:33:12;;;;;;;6.15;0.88;;;6.50;99.90;;;;;;5118670;27;20080;-89
2022/01/05 11:35:38;;;;;;;0.40;0.25;;;6.50;99.90;;;;;;5136731;27;20126;-89
2022/01/05 11:38:05;;;;;;;0.22;0.22;;;6.50;99.90;;;;;;5137054;27;20047;-90
2022/01/05 11:40:32;;;;;;;8.98;2.50;;;6.70;99.90;;;;;;5118183;27;20043;-90
2022/01/05 11:43:06;;;;;;;0.43;0.43;;;6.60;99.90;;;;;;5118181;27;20082;-79
2022/01/05 11:45:47;;;;;;;0.20;0.20;;;6.80;99.90;;;;;;5118143;27;20054;-89
2022/01/05 11:48:21;;;;;;;2.88;2.65;;;6.70;99.90;;;;;;5118317;27;20047;-89
2022/01/05 11:50:56;;;;;;;0.75;0.63;;;6.80;99.90;;;;;;5118003;27;20141;-89
2022/01/05 11:53:51;;;;;;;1.10;1.02;;;6.90;99.90;;;;;;5119860;27;20449;-88
2022/01/05 11:56:20;;;;;;;2.45;1.27;;;6.80;99.90;;;;;;5033284;28;20092;-89
2022/01/05 11:59:03;;;;;;;10.02;0.75;;;6.90;99.90;;;;;;5036798;28;20037;-89
2022/01/05 12:01:34;;;;;;;11.98;4.03;;;6.90;99.90;;;;;;5036014;28;20068;-87
2022/01/05 12:04:03;;;;;;;1.00;1.00;;;6.90;99.90;;;;;;5035909;28;20049;-89
2022/01/05 12:07:01;;;;;;;3.50;0.90;;;7.00;99.90;;;;;;5052800;28;20048;-89
2022/01/05 12:09:31;;;;;;;0.32;0.13;;;7.10;99.90;;;;;;5052891;28;20474;-83
2022/01/05 12:12:02;;;;;;;0.57;0.57;;;7.10;99.90;;;;;;5052978;28;20072;-90
2022/01/05 12:14:31;;;;;;;0.20;0.20;;;7.20;99.90;;;;;;5036395;28;20142;-88
2022/01/05 12:16:59;;;;;;;10.55;0.32;;;7.30;99.90;;;;;;5052481;28;20041;-87
2022/01/05 12:19:55;;;;;;;0.65;0.57;;;7.20;99.90;;;;;;5036270;28;20113;-90
2022/01/05 12:22:25;;;;;;;0.20;0.20;;;7.30;99.90;;;;;;5052394;28;20406;-88
2022/01/05 12:24:57;;;;;;;0.10;0.10;;;7.30;99.90;;;;;;5036225;28;20083;-90
2022/01/05 12:27:32;;;;;;;0.17;0.17;;;7.40;99.90;;;;;;5052793;28;20100;-88
2022/01/05 12:29:58;;;;;;;1.83;1.42;;;7.30;99.90;;;;;;5052891;28;20477;-90
2022/01/05 12:32:35;;;;;;;0.10;0.10;;;7.40;99.90;;;;;;5069427;28;20109;-88
2022/01/05 12:35:06;;;;;;;9.13;0.52;;;7.30;99.90;;;;;;5115698;28;20074;-88
2022/01/05 12:37:54;;;;;;;8.13;1.80;;;7.30;99.90;;;;;;5081272;28;20036;-87
2022/01/05 12:40:33;;;;;;;0.10;0.10;;;7.30;99.90;;;;;;5115128;28;20043;-90
2022/01/05 12:43:10;;;;;;;0.20;0.20;;;7.30;99.90;;;;;;5115288;28;20476;-78
2022/01/05 12:45:45;;;;;;;0.10;0.10;;;7.30;99.90;;;;;;5118928;28;20549;-87
2022/01/05 12:48:37;;;;;;;0.20;0.20;;;7.30;99.90;;;;;;5101290;28;20074;-89
2022/01/05 12:51:18;;;;;;;1.65;1.65;;;7.30;99.90;;;;;;5092145;28;20130;-87
2022/01/05 12:54:06;;;;;;;0.20;0.20;;;7.30;99.90;;;;;;5096976;28;20047;-89
2022/01/05 12:56:59;;;;;;;10.90;1.77;;;7.30;99.90;;;;;;5096400;28;20114;-88
2022/01/05 12:59:31;;;;;;;7.53;3.13;;;7.30;99.90;;;;;;5096587;28;20054;-87
2022/01/05 13:02:11;;;;;;;0.10;0.10;;;7.20;99.90;;;;;;5114478;28;20534;-91
2022/01/05 13:04:41;;;;;;;2.35;0.40;;;7.20;99.90;;;;;;5124243;27;20073;-91
2022/01/05 13:07:07;;;;;;;0.10;0.10;;;7.20;99.90;;;;;;5117125;27;20085;-91
2022/01/05 13:09:42;;;;;;;0.10;0.10;;;7.10;99.90;;;;;;5135175;27;20045;-90
2022/01/05 13:12:13;;;;;;;0.10;0.10;;;7.20;99.90;;;;;;5116079;27;20047;-84